createdAt,value
2022-09-11T00:00:08.040Z,3.30
2022-09-11T00:01:12.538Z,3.40
2022-09-11T00:02:17.715Z,2.50
2022-09-11T00:03:28.141Z,2.83
2022-09-11T00:04:33.370Z,3.37
2022-09-11T00:05:45.152Z,3.93
2022-09-11T00:06:48.785Z,3.80
2022-09-11T00:07:58.201Z,2.53
2022-09-11T00:09:02.672Z,2.53
2022-09-11T00:10:05.967Z,2.73
2022-09-11T00:11:11.643Z,1.53
2022-09-11T00:12:14.256Z,4.03
2022-09-11T00:13:28.179Z,3.13
2022-09-11T00:14:38.262Z,2.50
2022-09-11T00:15:42.943Z,2.87
2022-09-11T00:16:47.223Z,2.90
2022-09-11T00:17:49.777Z,2.87
2022-09-11T00:18:54.108Z,3.20
2022-09-11T00:20:03.207Z,2.97
2022-09-11T00:21:08.018Z,3.07
2022-09-11T00:22:11.565Z,2.47
2022-09-11T00:23:17.657Z,2.83
2022-09-11T00:24:21.114Z,2.83
2022-09-11T00:25:30.160Z,2.67
2022-09-11T00:26:34.001Z,3.83
2022-09-11T00:27:36.652Z,4.50
2022-09-11T00:28:40.207Z,3.27
2022-09-11T00:29:42.767Z,4.07
2022-09-11T00:30:55.173Z,2.93
2022-09-11T00:31:57.876Z,4.33
2022-09-11T00:33:08.313Z,2.93
2022-09-11T00:34:17.490Z,3.03
2022-09-11T00:35:20.971Z,2.50
2022-09-11T00:36:31.137Z,4.07
2022-09-11T00:37:41.144Z,2.60
2022-09-11T00:38:44.217Z,2.40
2022-09-11T00:39:47.798Z,2.67
2022-09-11T00:40:51.899Z,2.77
2022-09-11T00:41:55.908Z,3.00
2022-09-11T00:43:05.133Z,2.57
2022-09-11T00:44:09.243Z,2.17
2022-09-11T00:45:18.343Z,2.83
2022-09-11T00:46:23.780Z,2.27
2022-09-11T00:47:33.178Z,3.70
2022-09-11T00:48:38.208Z,2.27
2022-09-11T00:49:41.950Z,3.17
2022-09-11T00:50:45.722Z,3.93
2022-09-11T00:51:50.257Z,3.00
2022-09-11T00:53:03.179Z,3.23
2022-09-11T00:54:13.169Z,2.57
2022-09-11T00:55:19.065Z,2.93
2022-09-11T00:56:22.890Z,2.33
2022-09-11T00:57:28.221Z,2.83
2022-09-11T00:58:39.161Z,2.70
2022-09-11T00:59:50.241Z,3.63
2022-09-11T01:00:54.257Z,3.13
2022-09-11T01:01:58.160Z,2.97
2022-09-11T01:03:03.238Z,3.03
2022-09-11T01:04:06.882Z,2.73
2022-09-11T01:05:17.211Z,3.07
2022-09-11T01:06:22.041Z,1.80
2022-09-11T01:07:25.415Z,3.83
2022-09-11T01:08:29.578Z,2.30
2022-09-11T01:09:32.820Z,2.93
2022-09-11T01:10:46.180Z,2.80
2022-09-11T01:11:53.576Z,2.67
2022-09-11T01:13:02.650Z,3.03
2022-09-11T01:14:09.965Z,3.47
2022-09-11T01:15:15.825Z,2.53
2022-09-11T01:16:27.229Z,2.83
2022-09-11T01:17:34.716Z,2.53
2022-09-11T01:18:39.889Z,3.30
2022-09-11T01:19:49.490Z,1.87
2022-09-11T01:20:59.842Z,3.13
2022-09-11T01:22:17.173Z,2.07
2022-09-11T01:23:41.721Z,2.77
2022-09-11T01:24:51.129Z,2.50
2022-09-11T01:26:02.128Z,2.47
2022-09-11T01:27:22.179Z,2.47
2022-09-11T01:28:28.839Z,1.90
2022-09-11T01:29:39.063Z,2.73
2022-09-11T01:30:54.180Z,2.80
2022-09-11T01:32:00.974Z,2.83
2022-09-11T01:33:21.222Z,3.23
2022-09-11T01:34:36.824Z,4.13
2022-09-11T01:35:43.391Z,2.50
2022-09-11T01:36:50.017Z,2.20
2022-09-11T01:37:56.108Z,2.43
2022-09-11T01:39:07.184Z,2.83
2022-09-11T01:40:11.823Z,2.50
2022-09-11T01:41:17.867Z,2.00
2022-09-11T01:42:22.395Z,3.07
2022-09-11T01:43:30.690Z,2.37
2022-09-11T01:44:42.171Z,1.70
2022-09-11T01:45:48.057Z,2.43
2022-09-11T01:46:59.168Z,1.70
2022-09-11T01:48:03.159Z,1.87
2022-09-11T01:49:14.226Z,1.73
2022-09-11T01:50:18.480Z,2.40
2022-09-11T01:51:23.371Z,2.77
2022-09-11T01:52:30.109Z,2.17
2022-09-11T01:53:34.815Z,2.57
2022-09-11T01:54:49.159Z,2.00
2022-09-11T01:55:55.496Z,4.00
2022-09-11T01:57:01.707Z,2.80
2022-09-11T01:58:07.252Z,1.87
2022-09-11T01:59:21.171Z,3.43
2022-09-11T02:00:23.946Z,1.67
2022-09-11T02:01:30.690Z,2.33
2022-09-11T02:02:36.131Z,2.20
2022-09-11T02:03:41.593Z,2.90
2022-09-11T02:04:53.189Z,3.47
2022-09-11T02:06:06.183Z,2.40
2022-09-11T02:07:10.361Z,1.97
2022-09-11T02:08:16.460Z,1.87
2022-09-11T02:09:21.206Z,2.40
2022-09-11T02:10:32.179Z,2.83
2022-09-11T02:11:37.568Z,2.33
2022-09-11T02:12:43.639Z,2.17
2022-09-11T02:13:50.621Z,2.50
2022-09-11T02:15:02.177Z,1.80
2022-09-11T02:16:06.552Z,1.80
2022-09-11T02:17:15.514Z,1.93
2022-09-11T02:18:21.047Z,2.27
2022-09-11T02:19:26.458Z,1.53
2022-09-11T02:20:36.177Z,2.47
2022-09-11T02:21:47.157Z,1.73
2022-09-11T02:22:49.782Z,2.10
2022-09-11T02:23:55.461Z,3.57
2022-09-11T02:24:58.185Z,2.67
2022-09-11T02:26:02.925Z,1.97
2022-09-11T02:27:13.200Z,1.70
2022-09-11T02:28:23.198Z,4.50
2022-09-11T02:29:26.753Z,2.67
2022-09-11T02:30:31.663Z,1.83
2022-09-11T02:31:34.392Z,1.93
2022-09-11T02:32:45.228Z,1.80
2022-09-11T02:33:55.353Z,2.10
2022-09-11T02:34:58.374Z,1.77
2022-09-11T02:36:08.640Z,2.23
2022-09-11T02:37:17.409Z,1.63
2022-09-11T02:38:31.210Z,2.40
2022-09-11T02:39:43.070Z,2.50
2022-09-11T02:40:49.511Z,2.23
2022-09-11T02:42:10.078Z,2.47
2022-09-11T02:43:31.218Z,2.90
2022-09-11T02:44:37.117Z,1.60
2022-09-11T02:45:48.978Z,1.80
2022-09-11T02:47:05.645Z,2.50
2022-09-11T02:48:16.409Z,4.27
2022-09-11T02:49:28.263Z,2.53
2022-09-11T02:50:34.684Z,1.47
2022-09-11T02:51:44.288Z,2.60
2022-09-11T02:52:50.934Z,1.97
2022-09-11T02:54:01.850Z,2.60
2022-09-11T02:55:16.250Z,2.33
2022-09-11T02:56:22.621Z,2.77
2022-09-11T02:57:30.567Z,2.30
2022-09-11T02:58:36.608Z,2.57
2022-09-11T02:59:42.735Z,2.50
2022-09-11T03:00:54.227Z,2.77
2022-09-11T03:01:59.148Z,1.77
2022-09-11T03:03:01.789Z,2.47
2022-09-11T03:04:05.249Z,2.73
2022-09-11T03:05:15.198Z,2.13
2022-09-11T03:06:20.051Z,2.30
2022-09-11T03:07:22.611Z,2.30
2022-09-11T03:08:26.127Z,2.47
2022-09-11T03:09:28.738Z,2.40
2022-09-11T03:10:39.218Z,1.73
2022-09-11T03:11:42.474Z,2.87
2022-09-11T03:12:45.948Z,2.30
2022-09-11T03:13:48.499Z,2.03
2022-09-11T03:14:58.193Z,2.67
2022-09-11T03:16:03.214Z,2.47
2022-09-11T03:17:07.080Z,1.43
2022-09-11T03:18:17.286Z,2.67
2022-09-11T03:19:20.789Z,3.03
2022-09-11T03:20:23.359Z,1.97
2022-09-11T03:21:27.015Z,2.27
2022-09-11T03:22:29.560Z,2.80
2022-09-11T03:23:39.275Z,1.50
2022-09-11T03:24:42.932Z,2.83
2022-09-11T03:25:45.498Z,3.30
2022-09-11T03:26:48.975Z,2.40
2022-09-11T03:27:58.266Z,1.87
2022-09-11T03:29:01.716Z,3.13
2022-09-11T03:30:04.511Z,1.83
2022-09-11T03:31:09.609Z,2.77
2022-09-11T03:32:12.188Z,2.50
2022-09-11T03:33:29.199Z,3.40
2022-09-11T03:34:39.399Z,2.30
2022-09-11T03:35:41.931Z,2.67
2022-09-11T03:36:45.905Z,2.30
2022-09-11T03:37:48.914Z,3.00
2022-09-11T03:38:59.214Z,3.90
2022-09-11T03:40:09.256Z,2.93
2022-09-11T03:41:12.773Z,3.13
2022-09-11T03:42:15.372Z,2.50
2022-09-11T03:43:19.146Z,3.13
2022-09-11T03:44:21.811Z,3.30
2022-09-11T03:45:32.369Z,2.43
2022-09-11T03:46:36.373Z,3.10
2022-09-11T03:47:40.589Z,3.27
2022-09-11T03:48:43.111Z,2.63
2022-09-11T03:49:46.597Z,3.40
2022-09-11T03:50:56.215Z,2.57
2022-09-11T03:51:59.666Z,2.63
2022-09-11T03:53:02.267Z,3.10
2022-09-11T03:54:06.078Z,1.97
2022-09-11T03:55:15.251Z,3.07
2022-09-11T03:56:25.218Z,2.90
2022-09-11T03:57:27.850Z,1.27
2022-09-11T03:58:31.480Z,3.13
2022-09-11T03:59:34.078Z,3.63
2022-09-11T04:00:44.418Z,2.27
2022-09-11T04:01:50.208Z,2.43
2022-09-11T04:02:53.893Z,2.75
2022-09-11T04:03:56.487Z,3.17
2022-09-11T04:04:59.941Z,3.67
2022-09-11T04:06:10.202Z,1.90
2022-09-11T04:07:13.651Z,1.30
2022-09-11T04:08:23.221Z,2.30
2022-09-11T04:09:26.888Z,3.20
2022-09-11T04:10:29.420Z,1.70
2022-09-11T04:11:42.223Z,1.97
2022-09-11T04:12:52.193Z,3.17
2022-09-11T04:13:54.889Z,3.30
2022-09-11T04:14:58.322Z,3.30
2022-09-11T04:16:03.166Z,1.83
2022-09-11T04:17:15.241Z,3.00
2022-09-11T04:18:17.864Z,3.33
2022-09-11T04:19:21.698Z,2.70
2022-09-11T04:20:24.352Z,2.17
2022-09-11T04:21:28.671Z,3.03
2022-09-11T04:22:38.211Z,2.93
2022-09-11T04:23:41.954Z,1.37
2022-09-11T04:24:44.671Z,1.97
2022-09-11T04:25:48.712Z,2.87
2022-09-11T04:26:51.268Z,3.90
2022-09-11T04:28:01.290Z,2.47
2022-09-11T04:29:03.824Z,2.10
2022-09-11T04:30:07.724Z,2.53
2022-09-11T04:31:10.341Z,3.38
2022-09-11T04:32:15.213Z,1.87
2022-09-11T04:33:31.232Z,2.90
2022-09-11T04:34:48.272Z,1.93
2022-09-11T04:35:50.768Z,1.67
2022-09-11T04:36:55.523Z,1.40
2022-09-11T04:37:58.151Z,1.80
2022-09-11T04:39:01.700Z,3.07
2022-09-11T04:40:11.277Z,2.50
2022-09-11T04:41:14.950Z,2.33
2022-09-11T04:42:17.474Z,2.27
2022-09-11T04:43:20.919Z,2.17
2022-09-11T04:44:32.222Z,3.17
2022-09-11T04:45:36.648Z,2.80
2022-09-11T04:46:46.243Z,1.87
2022-09-11T04:47:53.007Z,2.10
2022-09-11T04:48:56.542Z,1.73
2022-09-11T04:50:02.217Z,1.75
2022-09-11T04:51:05.854Z,1.73
2022-09-11T04:52:16.258Z,2.00
2022-09-11T04:53:18.797Z,2.40
2022-09-11T04:54:22.437Z,1.20
2022-09-11T04:55:28.163Z,2.53
2022-09-11T04:56:39.240Z,0.93
2022-09-11T04:57:48.235Z,2.00
2022-09-11T04:58:55.171Z,2.60
2022-09-11T04:59:58.345Z,2.57
2022-09-11T05:01:02.023Z,1.40
2022-09-11T05:02:12.296Z,1.90
2022-09-11T05:03:16.168Z,2.23
2022-09-11T05:04:24.048Z,1.87
2022-09-11T05:05:28.452Z,1.85
2022-09-11T05:06:38.244Z,2.07
2022-09-11T05:07:47.252Z,2.90
2022-09-11T05:08:51.705Z,1.87
2022-09-11T05:09:54.499Z,1.67
2022-09-11T05:11:00.063Z,1.13
2022-09-11T05:12:10.285Z,1.43
2022-09-11T05:13:14.215Z,1.27
2022-09-11T05:14:23.250Z,2.37
2022-09-11T05:15:26.746Z,2.63
2022-09-11T05:16:30.677Z,1.45
2022-09-11T05:17:41.212Z,1.97
2022-09-11T05:18:50.367Z,2.00
2022-09-11T05:20:00.251Z,1.87
2022-09-11T05:21:03.517Z,1.70
2022-09-11T05:22:06.977Z,2.70
2022-09-11T05:23:16.248Z,2.30
2022-09-11T05:24:27.231Z,2.03
2022-09-11T05:25:31.282Z,1.88
2022-09-11T05:26:36.171Z,1.30
2022-09-11T05:27:45.287Z,2.47
2022-09-11T05:28:48.907Z,2.40
2022-09-11T05:29:51.506Z,2.27
2022-09-11T05:30:55.570Z,2.63
2022-09-11T05:31:59.024Z,1.17
2022-09-11T05:33:09.244Z,2.90
2022-09-11T05:34:28.718Z,2.57
2022-09-11T05:35:38.240Z,2.87
2022-09-11T05:36:41.879Z,2.20
2022-09-11T05:37:44.452Z,1.77
2022-09-11T05:38:48.875Z,1.97
2022-09-11T05:39:58.292Z,1.37
2022-09-11T05:41:01.970Z,1.37
2022-09-11T05:42:05.597Z,2.20
2022-09-11T05:43:08.166Z,1.50
2022-09-11T05:44:11.847Z,2.87
2022-09-11T05:45:21.305Z,2.07
2022-09-11T05:46:25.686Z,2.20
2022-09-11T05:47:28.208Z,2.33
2022-09-11T05:48:32.237Z,1.73
2022-09-11T05:49:40.108Z,3.00
2022-09-11T05:50:49.270Z,2.37
2022-09-11T05:51:59.313Z,1.67
2022-09-11T05:53:01.887Z,1.83
2022-09-11T05:54:05.837Z,3.13
2022-09-11T05:55:08.693Z,2.17
2022-09-11T05:56:13.735Z,1.10
2022-09-11T05:57:23.280Z,1.30
2022-09-11T05:58:26.734Z,1.23
2022-09-11T05:59:29.284Z,1.73
2022-09-11T06:00:32.752Z,1.97
2022-09-11T06:01:35.400Z,2.10
2022-09-11T06:02:45.252Z,1.27
2022-09-11T06:03:48.623Z,2.03
2022-09-11T06:04:53.404Z,2.47
2022-09-11T06:05:59.744Z,1.53
2022-09-11T06:07:03.222Z,1.80
2022-09-11T06:08:12.309Z,2.23
2022-09-11T06:09:15.868Z,1.23
2022-09-11T06:10:19.438Z,1.83
2022-09-11T06:11:22.790Z,2.40
2022-09-11T06:12:27.393Z,1.63
2022-09-11T06:13:37.257Z,2.33
2022-09-11T06:14:49.252Z,1.80
2022-09-11T06:15:51.868Z,1.27
2022-09-11T06:16:57.455Z,1.80
2022-09-11T06:18:00.050Z,1.90
2022-09-11T06:19:05.911Z,1.60
2022-09-11T06:20:19.265Z,2.43
2022-09-11T06:21:23.663Z,2.17
2022-09-11T06:22:29.769Z,2.83
2022-09-11T06:23:33.290Z,1.43
2022-09-11T06:24:42.265Z,2.70
2022-09-11T06:25:45.761Z,2.20
2022-09-11T06:26:55.272Z,2.10
2022-09-11T06:27:58.759Z,1.70
2022-09-11T06:29:03.090Z,2.20
2022-09-11T06:30:05.958Z,1.83
2022-09-11T06:31:18.272Z,2.07
2022-09-11T06:32:20.880Z,2.53
2022-09-11T06:33:46.255Z,2.30
2022-09-11T06:34:49.819Z,1.20
2022-09-11T06:36:07.348Z,1.67
2022-09-11T06:37:10.845Z,1.67
2022-09-11T06:38:13.913Z,2.07
2022-09-11T06:39:17.375Z,1.53
2022-09-11T06:40:19.922Z,2.00
2022-09-11T06:41:31.385Z,1.73
2022-09-11T06:42:34.121Z,2.07
2022-09-11T06:43:37.602Z,2.20
2022-09-11T06:44:42.046Z,1.97
2022-09-11T06:45:46.752Z,1.50
2022-09-11T06:46:56.265Z,2.57
2022-09-11T06:47:59.754Z,1.70
2022-09-11T06:49:09.289Z,2.33
2022-09-11T06:50:19.320Z,1.67
2022-09-11T06:51:23.566Z,1.97
2022-09-11T06:52:28.166Z,2.97
2022-09-11T06:53:30.792Z,2.17
2022-09-11T06:54:34.242Z,2.30
2022-09-11T06:55:43.321Z,2.07
2022-09-11T06:56:46.854Z,2.80
2022-09-11T06:57:49.765Z,1.63
2022-09-11T06:58:53.230Z,1.53
2022-09-11T06:59:57.700Z,0.93
2022-09-11T07:01:10.478Z,2.00
2022-09-11T07:02:13.399Z,1.70
2022-09-11T07:03:17.007Z,1.90
2022-09-11T07:04:19.590Z,0.90
2022-09-11T07:05:24.636Z,1.67
2022-09-11T07:06:37.288Z,1.40
2022-09-11T07:07:48.280Z,1.77
2022-09-11T07:08:52.318Z,2.00
2022-09-11T07:09:55.760Z,1.30
2022-09-11T07:11:04.880Z,2.10
2022-09-11T07:12:07.542Z,1.90
2022-09-11T07:13:17.282Z,1.83
2022-09-11T07:14:23.407Z,2.07
2022-09-11T07:15:25.985Z,1.47
2022-09-11T07:16:29.756Z,1.10
2022-09-11T07:17:39.333Z,0.97
2022-09-11T07:18:43.503Z,1.47
2022-09-11T07:19:46.034Z,0.63
2022-09-11T07:20:49.544Z,1.17
2022-09-11T07:21:54.372Z,1.43
2022-09-11T07:23:05.331Z,1.07
2022-09-11T07:24:08.830Z,1.87
2022-09-11T07:25:25.764Z,1.33
2022-09-11T07:26:30.803Z,1.10
2022-09-11T07:27:33.786Z,1.00
2022-09-11T07:28:38.017Z,1.20
2022-09-11T07:29:40.541Z,2.07
2022-09-11T07:30:50.309Z,1.23
2022-09-11T07:31:55.857Z,1.10
2022-09-11T07:32:59.425Z,1.07
2022-09-11T07:34:10.824Z,0.80
2022-09-11T07:35:28.328Z,1.43
2022-09-11T07:36:33.145Z,0.73
2022-09-11T07:37:37.015Z,1.27
2022-09-11T07:38:41.276Z,1.10
2022-09-11T07:39:44.019Z,1.63
2022-09-11T07:40:54.330Z,0.97
2022-09-11T07:41:56.911Z,1.40
2022-09-11T07:43:00.535Z,0.67
2022-09-11T07:44:03.809Z,0.33
2022-09-11T07:45:07.739Z,0.80
2022-09-11T07:46:17.349Z,1.27
2022-09-11T07:47:20.839Z,2.07
2022-09-11T07:48:23.520Z,1.37
2022-09-11T07:49:27.424Z,0.70
2022-09-11T07:50:29.933Z,0.90
2022-09-11T07:51:41.284Z,1.43
2022-09-11T07:52:51.302Z,0.57
2022-09-11T07:53:55.106Z,0.80
2022-09-11T07:54:57.770Z,0.70
2022-09-11T07:56:03.583Z,0.80
2022-09-11T07:57:13.313Z,1.00
2022-09-11T07:58:17.233Z,0.50
2022-09-11T07:59:19.746Z,1.17
2022-09-11T08:00:23.196Z,0.80
2022-09-11T08:01:27.095Z,1.20
2022-09-11T08:02:37.391Z,0.80
2022-09-11T08:03:40.246Z,1.30
2022-09-11T08:04:43.785Z,1.67
2022-09-11T08:05:46.339Z,1.80
2022-09-11T08:06:49.808Z,1.20
2022-09-11T08:08:00.365Z,0.80
2022-09-11T08:09:12.398Z,1.13
2022-09-11T08:10:27.388Z,0.60
2022-09-11T08:11:36.069Z,1.13
2022-09-11T08:12:38.708Z,0.70
2022-09-11T08:13:42.830Z,0.80
2022-09-11T08:14:53.331Z,1.90
2022-09-11T08:15:56.846Z,0.87
2022-09-11T08:17:07.642Z,0.63
2022-09-11T08:18:10.368Z,1.23
2022-09-11T08:19:19.005Z,1.10
2022-09-11T08:20:28.340Z,1.03
2022-09-11T08:21:31.954Z,1.40
2022-09-11T08:22:34.877Z,1.73
2022-09-11T08:23:40.716Z,0.90
2022-09-11T08:24:43.267Z,0.60
2022-09-11T08:25:53.287Z,0.87
2022-09-11T08:26:57.140Z,1.17
2022-09-11T08:28:01.567Z,0.90
2022-09-11T08:29:04.690Z,1.27
2022-09-11T08:30:15.285Z,0.73
2022-09-11T08:31:18.544Z,0.73
2022-09-11T08:32:21.916Z,1.13
2022-09-11T08:33:44.362Z,1.17
2022-09-11T08:34:48.044Z,0.93
2022-09-11T08:35:57.271Z,0.43
2022-09-11T08:37:00.636Z,0.90
2022-09-11T08:38:03.335Z,0.60
2022-09-11T08:39:09.095Z,0.63
2022-09-11T08:40:11.973Z,1.30
2022-09-11T08:41:29.300Z,0.93
2022-09-11T08:42:31.811Z,0.43
2022-09-11T08:43:38.393Z,0.60
2022-09-11T08:44:46.444Z,0.40
2022-09-11T08:45:56.354Z,0.30
2022-09-11T08:47:09.408Z,1.13
2022-09-11T08:48:13.400Z,0.50
2022-09-11T08:49:19.282Z,0.50
2022-09-11T08:50:24.742Z,0.67
2022-09-11T08:51:27.196Z,0.63
2022-09-11T08:52:39.275Z,0.30
2022-09-11T08:53:42.798Z,0.30
2022-09-11T08:54:47.709Z,0.83
2022-09-11T08:55:52.624Z,0.67
2022-09-11T08:56:57.454Z,0.40
2022-09-11T08:58:13.269Z,0.63
2022-09-11T08:59:19.735Z,0.53
2022-09-11T09:00:25.065Z,0.50
2022-09-11T09:01:31.856Z,0.33
2022-09-11T09:02:54.353Z,0.37
2022-09-11T09:04:05.577Z,0.87
2022-09-11T09:05:22.323Z,0.50
2022-09-11T09:06:32.337Z,0.60
2022-09-11T09:07:40.070Z,1.33
2022-09-11T09:08:50.598Z,0.63
2022-09-11T09:10:07.351Z,0.77
2022-09-11T09:11:15.355Z,0.50
2022-09-11T09:12:21.123Z,0.50
2022-09-11T09:13:30.591Z,0.60
2022-09-11T09:14:48.069Z,1.17
2022-09-11T09:16:02.458Z,0.43
2022-09-11T09:17:06.046Z,0.30
2022-09-11T09:18:12.588Z,0.83
2022-09-11T09:19:16.650Z,0.57
2022-09-11T09:20:23.173Z,0.60
2022-09-11T09:21:34.338Z,1.00
2022-09-11T09:22:41.155Z,0.73
2022-09-11T09:23:46.006Z,1.10
2022-09-11T09:24:51.256Z,0.83
2022-09-11T09:25:56.059Z,0.53
2022-09-11T09:27:06.344Z,0.50
2022-09-11T09:28:13.872Z,0.47
2022-09-11T09:29:20.497Z,0.60
2022-09-11T09:30:24.634Z,0.40
2022-09-11T09:31:30.271Z,0.20
2022-09-11T09:32:42.342Z,0.40
2022-09-11T09:34:02.016Z,0.40
2022-09-11T09:35:06.498Z,0.93
2022-09-11T09:36:14.872Z,0.37
2022-09-11T09:37:25.753Z,0.67
2022-09-11T09:38:30.195Z,0.40
2022-09-11T09:39:33.036Z,0.67
2022-09-11T09:40:37.693Z,0.50
2022-09-11T09:41:50.817Z,0.30
2022-09-11T09:43:10.390Z,0.40
2022-09-11T09:44:19.662Z,0.37
2022-09-11T09:45:50.265Z,0.73
2022-09-11T09:46:53.959Z,0.80
2022-09-11T09:47:57.480Z,0.63
2022-09-11T09:49:07.371Z,0.30
2022-09-11T09:50:17.872Z,0.27
2022-09-11T09:51:21.382Z,0.33
2022-09-11T09:52:24.833Z,0.53
2022-09-11T09:53:32.491Z,0.30
2022-09-11T09:54:43.323Z,0.60
2022-09-11T09:55:47.555Z,0.50
2022-09-11T09:56:58.150Z,0.47
2022-09-11T09:58:00.780Z,0.53
2022-09-11T09:59:05.163Z,0.43
2022-09-11T10:00:22.360Z,0.73
2022-09-11T10:01:45.284Z,1.03
2022-09-11T10:02:49.389Z,0.33
2022-09-11T10:04:11.000Z,0.80
2022-09-11T10:05:26.444Z,0.20
2022-09-11T10:06:29.010Z,0.37
2022-09-11T10:07:32.602Z,0.60
2022-09-11T10:08:36.207Z,0.50
2022-09-11T10:09:47.000Z,1.00
2022-09-11T10:11:04.355Z,0.30
2022-09-11T10:12:09.755Z,0.30
2022-09-11T10:13:25.102Z,0.50
2022-09-11T10:14:50.509Z,0.97
2022-09-11T10:15:58.397Z,0.43
2022-09-11T10:17:02.039Z,0.50
2022-09-11T10:18:20.363Z,0.77
2022-09-11T10:19:35.524Z,0.33
2022-09-11T10:21:08.571Z,0.60
2022-09-11T10:22:27.873Z,0.80
2022-09-11T10:23:31.444Z,0.50
2022-09-11T10:24:34.312Z,0.70
2022-09-11T10:25:45.984Z,0.87
2022-09-11T10:26:57.366Z,0.60
2022-09-11T10:28:12.454Z,0.20
2022-09-11T10:29:16.644Z,0.50
2022-09-11T10:30:28.141Z,0.87
2022-09-11T10:31:31.641Z,0.43
2022-09-11T10:32:43.342Z,0.43
2022-09-11T10:34:08.341Z,0.77
2022-09-11T10:35:11.371Z,0.47
2022-09-11T10:36:15.043Z,0.40
2022-09-11T10:37:28.371Z,0.30
2022-09-11T10:38:32.899Z,0.63
2022-09-11T10:39:43.414Z,0.50
2022-09-11T10:41:00.480Z,0.40
2022-09-11T10:42:10.680Z,0.53
2022-09-11T10:43:24.723Z,1.07
2022-09-11T10:44:35.388Z,0.73
2022-09-11T10:45:38.009Z,0.70
2022-09-11T10:46:48.359Z,0.50
2022-09-11T10:47:57.350Z,0.20
2022-09-11T10:49:02.045Z,0.20
2022-09-11T10:50:21.513Z,0.53
2022-09-11T10:51:25.581Z,0.40
2022-09-11T10:52:28.278Z,0.20
2022-09-11T10:53:39.363Z,0.43
2022-09-11T10:54:59.433Z,0.40
2022-09-11T10:56:06.076Z,1.00
2022-09-11T10:57:13.611Z,0.53
2022-09-11T10:58:18.287Z,0.40
2022-09-11T10:59:26.635Z,0.57
2022-09-11T11:00:37.373Z,0.40
2022-09-11T11:01:40.211Z,0.53
2022-09-11T11:02:45.997Z,0.60
2022-09-11T11:03:48.845Z,0.57
2022-09-11T11:04:52.337Z,0.30
2022-09-11T11:06:11.388Z,0.70
2022-09-11T11:07:21.191Z,0.53
2022-09-11T11:08:30.047Z,0.30
2022-09-11T11:09:39.205Z,0.23
2022-09-11T11:10:55.535Z,0.77
2022-09-11T11:12:06.315Z,0.40
2022-09-11T11:13:16.684Z,0.50
2022-09-11T11:14:38.048Z,0.50
2022-09-11T11:15:48.024Z,0.40
2022-09-11T11:17:01.446Z,0.77
2022-09-11T11:18:16.091Z,0.60
2022-09-11T11:19:27.705Z,1.00
2022-09-11T11:20:35.870Z,0.43
2022-09-11T11:21:44.675Z,0.60
2022-09-11T11:23:06.397Z,0.50
2022-09-11T11:24:17.739Z,1.00
2022-09-11T11:25:24.359Z,0.97
2022-09-11T11:26:34.089Z,0.50
2022-09-11T11:28:02.368Z,0.50
2022-09-11T11:29:21.371Z,0.27
2022-09-11T11:30:29.128Z,0.73
2022-09-11T11:31:44.554Z,0.93
2022-09-11T11:32:56.334Z,0.70
2022-09-11T11:34:21.375Z,0.50
2022-09-11T11:35:39.563Z,0.50
2022-09-11T11:36:44.496Z,0.40
2022-09-11T11:37:50.091Z,0.30
2022-09-11T11:39:07.440Z,0.60
2022-09-11T11:40:15.878Z,0.77
2022-09-11T11:41:21.373Z,0.37
2022-09-11T11:42:27.137Z,0.40
2022-09-11T11:43:33.673Z,0.47
2022-09-11T11:44:48.823Z,0.50
2022-09-11T11:45:53.165Z,0.50
2022-09-11T11:46:59.243Z,0.57
2022-09-11T11:48:06.012Z,0.30
2022-09-11T11:49:12.849Z,0.47
2022-09-11T11:50:31.140Z,0.73
2022-09-11T11:51:37.429Z,0.40
2022-09-11T11:52:44.251Z,0.40
2022-09-11T11:53:51.212Z,0.27
2022-09-11T11:54:56.227Z,0.60
2022-09-11T11:56:11.424Z,0.60
2022-09-11T11:57:16.839Z,0.20
2022-09-11T11:58:24.625Z,0.70
2022-09-11T11:59:32.772Z,0.40
2022-09-11T12:00:45.426Z,0.60
2022-09-11T12:01:52.521Z,0.50
2022-09-11T12:02:59.023Z,0.10
2022-09-11T12:04:04.272Z,0.43
2022-09-11T12:05:09.672Z,0.47
2022-09-11T12:06:20.398Z,0.87
2022-09-11T12:07:25.557Z,0.40
2022-09-11T12:08:35.438Z,0.50
2022-09-11T12:09:38.907Z,0.50
2022-09-11T12:10:42.769Z,0.43
2022-09-11T12:11:48.690Z,0.50
2022-09-11T12:12:53.671Z,1.00
2022-09-11T12:14:03.402Z,0.67
2022-09-11T12:15:07.367Z,0.37
2022-09-11T12:16:14.937Z,0.30
2022-09-11T12:17:19.321Z,0.70
2022-09-11T12:18:25.830Z,0.63
2022-09-11T12:19:35.388Z,0.20
2022-09-11T12:20:40.691Z,0.70
2022-09-11T12:22:10.424Z,0.70
2022-09-11T12:23:35.438Z,0.57
2022-09-11T12:24:59.062Z,0.77
2022-09-11T12:26:06.959Z,0.40
2022-09-11T12:27:28.683Z,0.30
2022-09-11T12:28:38.429Z,0.20
2022-09-11T12:29:54.280Z,0.40
2022-09-11T12:30:59.410Z,0.30
2022-09-11T12:32:28.408Z,0.50
2022-09-11T12:33:54.587Z,0.83
2022-09-11T12:35:12.343Z,0.57
2022-09-11T12:36:24.465Z,0.90
2022-09-11T12:37:28.695Z,0.20
2022-09-11T12:38:36.517Z,0.53
2022-09-11T12:39:41.508Z,0.40
2022-09-11T12:40:50.331Z,0.90
2022-09-11T12:42:00.427Z,0.70
2022-09-11T12:43:21.575Z,0.37
2022-09-11T12:44:32.143Z,0.80
2022-09-11T12:45:36.370Z,0.40
2022-09-11T12:47:04.387Z,0.50
2022-09-11T12:48:09.320Z,0.50
2022-09-11T12:49:22.467Z,0.70
2022-09-11T12:50:27.998Z,0.37
2022-09-11T12:51:34.128Z,0.50
2022-09-11T12:52:46.394Z,0.37
2022-09-11T12:53:51.703Z,0.40
2022-09-11T12:54:54.767Z,0.27
2022-09-11T12:56:00.703Z,0.60
2022-09-11T12:57:11.426Z,0.20
2022-09-11T12:58:32.447Z,0.33
2022-09-11T12:59:38.605Z,0.93
2022-09-11T13:00:43.846Z,1.03
2022-09-11T13:01:46.592Z,0.67
2022-09-11T13:03:00.427Z,0.47
2022-09-11T13:04:05.408Z,0.60
2022-09-11T13:05:24.467Z,0.40
2022-09-11T13:06:37.441Z,0.20
2022-09-11T13:07:42.321Z,0.70
2022-09-11T13:08:49.463Z,0.40
2022-09-11T13:09:52.375Z,0.67
2022-09-11T13:11:02.408Z,0.13
2022-09-11T13:12:24.166Z,0.90
2022-09-11T13:13:45.192Z,0.57
2022-09-11T13:14:52.264Z,0.97
2022-09-11T13:16:04.513Z,0.33
2022-09-11T13:17:14.325Z,0.33
2022-09-11T13:18:25.371Z,0.43
2022-09-11T13:19:32.703Z,0.47
2022-09-11T13:20:38.088Z,0.13
2022-09-11T13:21:48.454Z,0.60
2022-09-11T13:22:58.153Z,0.27
2022-09-11T13:24:02.566Z,0.30
2022-09-11T13:25:06.446Z,0.30
2022-09-11T13:26:10.311Z,0.10
2022-09-11T13:27:24.452Z,0.67
2022-09-11T13:28:28.905Z,0.63
2022-09-11T13:29:33.849Z,0.40
2022-09-11T13:30:36.885Z,0.60
2022-09-11T13:31:47.419Z,0.20
2022-09-11T13:32:51.098Z,0.57
2022-09-11T13:34:01.635Z,0.60
2022-09-11T13:35:20.442Z,0.33
2022-09-11T13:36:26.478Z,0.40
2022-09-11T13:37:41.412Z,0.70
2022-09-11T13:38:45.551Z,0.20
2022-09-11T13:39:48.151Z,0.30
2022-09-11T13:40:54.637Z,0.23
2022-09-11T13:42:02.857Z,0.30
2022-09-11T13:43:12.444Z,0.30
2022-09-11T13:44:35.446Z,0.50
2022-09-11T13:45:38.049Z,0.32
2022-09-11T13:46:51.228Z,0.60
2022-09-11T13:47:54.794Z,0.75
2022-09-11T13:49:06.555Z,0.40
2022-09-11T13:50:12.614Z,0.50
2022-09-11T13:51:17.304Z,0.20
2022-09-11T13:52:22.252Z,0.35
2022-09-11T13:53:26.677Z,0.38
2022-09-11T13:54:37.447Z,0.43
2022-09-11T13:55:40.920Z,0.50
2022-09-11T13:56:48.111Z,0.43
2022-09-11T13:57:56.094Z,0.43
2022-09-11T13:59:05.513Z,0.30
2022-09-11T14:00:38.267Z,0.50
2022-09-11T14:01:51.262Z,0.20
2022-09-11T14:02:54.886Z,0.47
2022-09-11T14:03:57.496Z,0.95
2022-09-11T14:05:11.507Z,0.70
2022-09-11T14:06:17.149Z,0.30
2022-09-11T14:07:22.510Z,0.20
2022-09-11T14:08:34.794Z,0.37
2022-09-11T14:09:37.458Z,0.63
2022-09-11T14:10:53.463Z,0.32
2022-09-11T14:12:02.774Z,0.30
2022-09-11T14:13:10.467Z,0.43
2022-09-11T14:14:16.017Z,0.40
2022-09-11T14:15:21.301Z,0.23
2022-09-11T14:16:33.449Z,0.50
2022-09-11T14:17:40.051Z,0.63
2022-09-11T14:18:46.208Z,0.47
2022-09-11T14:19:51.051Z,0.60
2022-09-11T14:21:02.454Z,0.60
2022-09-11T14:22:21.471Z,0.40
2022-09-11T14:23:28.522Z,0.27
2022-09-11T14:24:34.724Z,0.53
2022-09-11T14:25:38.273Z,0.80
2022-09-11T14:26:48.489Z,0.22
2022-09-11T14:27:52.594Z,0.47
2022-09-11T14:29:02.624Z,0.22
2022-09-11T14:30:21.223Z,0.20
2022-09-11T14:31:30.378Z,0.32
2022-09-11T14:32:43.458Z,0.50
2022-09-11T14:33:46.903Z,0.10
2022-09-11T14:34:56.451Z,0.53
2022-09-11T14:36:07.772Z,0.20
2022-09-11T14:37:12.001Z,0.40
2022-09-11T14:38:23.484Z,0.47
2022-09-11T14:39:37.568Z,0.30
2022-09-11T14:40:43.050Z,0.40
2022-09-11T14:41:46.772Z,0.77
2022-09-11T14:42:49.911Z,1.03
2022-09-11T14:43:53.479Z,0.53
2022-09-11T14:45:02.478Z,1.10
2022-09-11T14:46:06.192Z,0.77
2022-09-11T14:47:13.907Z,0.97
2022-09-11T14:48:18.245Z,0.97
2022-09-11T14:49:28.448Z,0.57
2022-09-11T14:50:37.463Z,0.97
2022-09-11T14:51:41.672Z,0.57
2022-09-11T14:52:44.236Z,0.37
2022-09-11T14:53:47.822Z,0.93
2022-09-11T14:54:52.599Z,0.43
2022-09-11T14:56:01.448Z,0.33
2022-09-11T14:57:05.042Z,0.53
2022-09-11T14:58:08.938Z,0.90
2022-09-11T14:59:14.067Z,0.27
2022-09-11T15:00:17.806Z,0.20
2022-09-11T15:01:27.517Z,0.33